sensor_id;sensor_type;location;lat;lon;timestamp;P1;durP1;ratioP1;P2;durP2;ratioP2
65755;SDS011;69208;47.502;18.940;2023-12-20T00:00:38;37.50;;;26.37;;
65755;SDS011;69208;47.502;18.940;2023-12-20T00:01:42;44.97;;;28.90;;
65755;SDS011;69208;47.502;18.940;2023-12-20T00:02:45;40.03;;;27.17;;
65755;SDS011;69208;47.502;18.940;2023-12-20T00:03:49;45.97;;;29.90;;
65755;SDS011;69208;47.502;18.940;2023-12-20T00:04:53;40.42;;;29.92;;
65755;SDS011;69208;47.502;18.940;2023-12-20T00:05:56;44.95;;;31.27;;
65755;SDS011;69208;47.502;18.940;2023-12-20T00:07:01;47.22;;;32.97;;
65755;SDS011;69208;47.502;18.940;2023-12-20T00:08:05;46.97;;;31.62;;
65755;SDS011;69208;47.502;18.940;2023-12-20T00:09:09;52.08;;;31.85;;
65755;SDS011;69208;47.502;18.940;2023-12-20T00:10:12;45.60;;;33.40;;
65755;SDS011;69208;47.502;18.940;2023-12-20T00:11:15;54.30;;;33.63;;
65755;SDS011;69208;47.502;18.940;2023-12-20T00:12:19;48.95;;;32.83;;
65755;SDS011;69208;47.502;18.940;2023-12-20T00:13:22;64.22;;;34.17;;
65755;SDS011;69208;47.502;18.940;2023-12-20T00:14:25;69.55;;;35.17;;
65755;SDS011;69208;47.502;18.940;2023-12-20T00:15:28;47.10;;;33.83;;
65755;SDS011;69208;47.502;18.940;2023-12-20T00:16:31;51.15;;;32.45;;
65755;SDS011;69208;47.502;18.940;2023-12-20T00:17:34;51.97;;;31.48;;
65755;SDS011;69208;47.502;18.940;2023-12-20T00:18:37;50.95;;;30.98;;
65755;SDS011;69208;47.502;18.940;2023-12-20T00:19:41;59.10;;;31.87;;
65755;SDS011;69208;47.502;18.940;2023-12-20T00:20:44;68.68;;;31.77;;
65755;SDS011;69208;47.502;18.940;2023-12-20T00:21:47;70.90;;;32.85;;
65755;SDS011;69208;47.502;18.940;2023-12-20T00:22:50;71.62;;;34.53;;
65755;SDS011;69208;47.502;18.940;2023-12-20T00:23:54;97.43;;;34.30;;
65755;SDS011;69208;47.502;18.940;2023-12-20T00:24:57;70.28;;;34.40;;
65755;SDS011;69208;47.502;18.940;2023-12-20T00:26:00;90.68;;;35.17;;
65755;SDS011;69208;47.502;18.940;2023-12-20T00:27:03;117.03;;;35.92;;
65755;SDS011;69208;47.502;18.940;2023-12-20T00:28:07;70.72;;;36.80;;
65755;SDS011;69208;47.502;18.940;2023-12-20T00:29:10;91.47;;;37.08;;
65755;SDS011;69208;47.502;18.940;2023-12-20T00:30:13;67.37;;;36.28;;
65755;SDS011;69208;47.502;18.940;2023-12-20T00:31:16;66.87;;;37.65;;
65755;SDS011;69208;47.502;18.940;2023-12-20T00:32:20;62.78;;;38.13;;
65755;SDS011;69208;47.502;18.940;2023-12-20T00:33:23;90.78;;;37.92;;
65755;SDS011;69208;47.502;18.940;2023-12-20T00:34:26;121.43;;;38.38;;
65755;SDS011;69208;47.502;18.940;2023-12-20T00:35:29;108.68;;;40.50;;
65755;SDS011;69208;47.502;18.940;2023-12-20T00:36:32;129.50;;;41.92;;
65755;SDS011;69208;47.502;18.940;2023-12-20T00:37:35;129.75;;;38.67;;
65755;SDS011;69208;47.502;18.940;2023-12-20T00:38:38;90.05;;;40.55;;
65755;SDS011;69208;47.502;18.940;2023-12-20T00:39:42;82.37;;;40.12;;
65755;SDS011;69208;47.502;18.940;2023-12-20T00:40:45;79.97;;;37.42;;
65755;SDS011;69208;47.502;18.940;2023-12-20T00:41:48;77.75;;;39.83;;
65755;SDS011;69208;47.502;18.940;2023-12-20T00:42:51;93.12;;;38.30;;
65755;SDS011;69208;47.502;18.940;2023-12-20T00:43:55;117.20;;;39.00;;
65755;SDS011;69208;47.502;18.940;2023-12-20T00:44:58;104.87;;;39.03;;
65755;SDS011;69208;47.502;18.940;2023-12-20T00:46:03;108.95;;;40.42;;
65755;SDS011;69208;47.502;18.940;2023-12-20T00:47:06;123.18;;;37.90;;
65755;SDS011;69208;47.502;18.940;2023-12-20T00:48:09;119.97;;;39.40;;
65755;SDS011;69208;47.502;18.940;2023-12-20T00:49:13;73.45;;;38.92;;
65755;SDS011;69208;47.502;18.940;2023-12-20T00:50:16;104.50;;;39.95;;
65755;SDS011;69208;47.502;18.940;2023-12-20T00:51:19;79.78;;;40.12;;
65755;SDS011;69208;47.502;18.940;2023-12-20T00:52:22;82.72;;;40.85;;
65755;SDS011;69208;47.502;18.940;2023-12-20T00:53:25;79.22;;;39.53;;
65755;SDS011;69208;47.502;18.940;2023-12-20T00:54:29;79.68;;;38.67;;
65755;SDS011;69208;47.502;18.940;2023-12-20T00:55:33;108.53;;;39.58;;
65755;SDS011;69208;47.502;18.940;2023-12-20T00:56:36;82.72;;;39.15;;
65755;SDS011;69208;47.502;18.940;2023-12-20T00:57:39;125.25;;;42.55;;
65755;SDS011;69208;47.502;18.940;2023-12-20T00:58:43;128.15;;;42.15;;
65755;SDS011;69208;47.502;18.940;2023-12-20T00:59:46;104.60;;;41.50;;
65755;SDS011;69208;47.502;18.940;2023-12-20T01:00:49;83.25;;;41.67;;
65755;SDS011;69208;47.502;18.940;2023-12-20T01:01:52;156.43;;;42.28;;
65755;SDS011;69208;47.502;18.940;2023-12-20T01:02:56;114.35;;;42.28;;
65755;SDS011;69208;47.502;18.940;2023-12-20T01:03:59;117.62;;;43.05;;
65755;SDS011;69208;47.502;18.940;2023-12-20T01:05:03;85.68;;;40.17;;
65755;SDS011;69208;47.502;18.940;2023-12-20T01:06:06;107.43;;;39.92;;
65755;SDS011;69208;47.502;18.940;2023-12-20T01:07:09;175.52;;;42.05;;
65755;SDS011;69208;47.502;18.940;2023-12-20T01:08:12;181.82;;;43.05;;
65755;SDS011;69208;47.502;18.940;2023-12-20T01:09:16;151.02;;;40.97;;
65755;SDS011;69208;47.502;18.940;2023-12-20T01:10:19;130.25;;;40.72;;
65755;SDS011;69208;47.502;18.940;2023-12-20T01:11:22;168.40;;;39.80;;
65755;SDS011;69208;47.502;18.940;2023-12-20T01:12:25;113.60;;;39.95;;
65755;SDS011;69208;47.502;18.940;2023-12-20T01:13:28;107.93;;;39.58;;
65755;SDS011;69208;47.502;18.940;2023-12-20T01:14:32;152.25;;;43.60;;
65755;SDS011;69208;47.502;18.940;2023-12-20T01:15:35;123.45;;;42.47;;
65755;SDS011;69208;47.502;18.940;2023-12-20T01:16:38;141.93;;;43.75;;
65755;SDS011;69208;47.502;18.940;2023-12-20T01:17:42;145.62;;;45.53;;
65755;SDS011;69208;47.502;18.940;2023-12-20T01:18:45;130.35;;;43.67;;
65755;SDS011;69208;47.502;18.940;2023-12-20T01:19:49;141.57;;;45.08;;
65755;SDS011;69208;47.502;18.940;2023-12-20T01:20:52;104.35;;;43.30;;
65755;SDS011;69208;47.502;18.940;2023-12-20T01:21:55;93.22;;;43.53;;
65755;SDS011;69208;47.502;18.940;2023-12-20T01:22:59;127.75;;;42.47;;
65755;SDS011;69208;47.502;18.940;2023-12-20T01:24:02;127.93;;;43.72;;
65755;SDS011;69208;47.502;18.940;2023-12-20T01:25:05;71.87;;;44.30;;
65755;SDS011;69208;47.502;18.940;2023-12-20T01:26:09;102.45;;;39.20;;
65755;SDS011;69208;47.502;18.940;2023-12-20T01:27:13;78.50;;;39.90;;
65755;SDS011;69208;47.502;18.940;2023-12-20T01:28:16;64.53;;;37.60;;
65755;SDS011;69208;47.502;18.940;2023-12-20T01:29:20;71.68;;;35.40;;
65755;SDS011;69208;47.502;18.940;2023-12-20T01:30:23;65.68;;;33.80;;
65755;SDS011;69208;47.502;18.940;2023-12-20T01:31:27;49.05;;;33.50;;
65755;SDS011;69208;47.502;18.940;2023-12-20T01:32:30;57.15;;;34.95;;
65755;SDS011;69208;47.502;18.940;2023-12-20T01:33:33;48.05;;;32.55;;
65755;SDS011;69208;47.502;18.940;2023-12-20T01:34:36;75.12;;;30.98;;
65755;SDS011;69208;47.502;18.940;2023-12-20T01:35:40;52.75;;;30.92;;
65755;SDS011;69208;47.502;18.940;2023-12-20T01:36:44;66.90;;;33.10;;
65755;SDS011;69208;47.502;18.940;2023-12-20T01:37:47;75.80;;;31.40;;
65755;SDS011;69208;47.502;18.940;2023-12-20T01:38:51;87.93;;;32.95;;
65755;SDS011;69208;47.502;18.940;2023-12-20T01:39:54;56.20;;;30.65;;
65755;SDS011;69208;47.502;18.940;2023-12-20T01:40:57;133.45;;;32.17;;
65755;SDS011;69208;47.502;18.940;2023-12-20T01:42:01;78.12;;;30.52;;
65755;SDS011;69208;47.502;18.940;2023-12-20T01:43:07;159.48;;;31.70;;
65755;SDS011;69208;47.502;18.940;2023-12-20T01:44:11;120.62;;;31.10;;
65755;SDS011;69208;47.502;18.940;2023-12-20T01:45:14;93.22;;;30.23;;
65755;SDS011;69208;47.502;18.940;2023-12-20T01:46:17;103.72;;;29.60;;
65755;SDS011;69208;47.502;18.940;2023-12-20T01:47:24;126.25;;;30.48;;
65755;SDS011;69208;47.502;18.940;2023-12-20T01:48:30;120.65;;;29.63;;
65755;SDS011;69208;47.502;18.940;2023-12-20T01:49:35;50.45;;;27.90;;
65755;SDS011;69208;47.502;18.940;2023-12-20T01:50:38;246.35;;;31.15;;
65755;SDS011;69208;47.502;18.940;2023-12-20T01:51:42;114.12;;;31.00;;
65755;SDS011;69208;47.502;18.940;2023-12-20T01:52:46;138.73;;;29.63;;
65755;SDS011;69208;47.502;18.940;2023-12-20T01:53:50;168.60;;;30.95;;
65755;SDS011;69208;47.502;18.940;2023-12-20T01:54:53;127.50;;;30.08;;
65755;SDS011;69208;47.502;18.940;2023-12-20T01:56:04;142.75;;;29.70;;
65755;SDS011;69208;47.502;18.940;2023-12-20T01:57:07;96.37;;;30.27;;
65755;SDS011;69208;47.502;18.940;2023-12-20T01:58:11;85.68;;;30.70;;
65755;SDS011;69208;47.502;18.940;2023-12-20T01:59:17;100.95;;;29.33;;
65755;SDS011;69208;47.502;18.940;2023-12-20T02:00:23;84.20;;;28.23;;
65755;SDS011;69208;47.502;18.940;2023-12-20T02:01:29;53.50;;;29.00;;
65755;SDS011;69208;47.502;18.940;2023-12-20T02:02:33;73.25;;;30.73;;
65755;SDS011;69208;47.502;18.940;2023-12-20T02:03:37;72.07;;;29.25;;
65755;SDS011;69208;47.502;18.940;2023-12-20T02:04:40;73.03;;;28.40;;
65755;SDS011;69208;47.502;18.940;2023-12-20T02:05:44;79.90;;;29.30;;
65755;SDS011;69208;47.502;18.940;2023-12-20T02:06:48;85.12;;;29.90;;
65755;SDS011;69208;47.502;18.940;2023-12-20T02:07:55;77.50;;;29.65;;
65755;SDS011;69208;47.502;18.940;2023-12-20T02:08:59;65.57;;;30.08;;
65755;SDS011;69208;47.502;18.940;2023-12-20T02:10:02;44.42;;;28.42;;
65755;SDS011;69208;47.502;18.940;2023-12-20T02:11:07;55.20;;;27.95;;
65755;SDS011;69208;47.502;18.940;2023-12-20T02:12:10;37.45;;;28.90;;
65755;SDS011;69208;47.502;18.940;2023-12-20T02:13:14;35.17;;;27.65;;
65755;SDS011;69208;47.502;18.940;2023-12-20T02:14:17;35.95;;;27.77;;
65755;SDS011;69208;47.502;18.940;2023-12-20T02:15:20;36.85;;;27.92;;
65755;SDS011;69208;47.502;18.940;2023-12-20T02:16:24;34.85;;;26.92;;
65755;SDS011;69208;47.502;18.940;2023-12-20T02:17:27;33.30;;;26.52;;
65755;SDS011;69208;47.502;18.940;2023-12-20T02:18:32;31.60;;;25.88;;
65755;SDS011;69208;47.502;18.940;2023-12-20T02:19:36;33.53;;;25.25;;
65755;SDS011;69208;47.502;18.940;2023-12-20T02:20:39;33.45;;;27.08;;
65755;SDS011;69208;47.502;18.940;2023-12-20T02:21:43;30.77;;;25.67;;
65755;SDS011;69208;47.502;18.940;2023-12-20T02:22:46;30.40;;;25.42;;
65755;SDS011;69208;47.502;18.940;2023-12-20T02:23:49;29.67;;;23.85;;
65755;SDS011;69208;47.502;18.940;2023-12-20T02:24:52;31.95;;;24.75;;
65755;SDS011;69208;47.502;18.940;2023-12-20T02:25:56;29.45;;;23.33;;
65755;SDS011;69208;47.502;18.940;2023-12-20T02:26:59;29.98;;;23.62;;
65755;SDS011;69208;47.502;18.940;2023-12-20T02:28:03;32.15;;;25.20;;
65755;SDS011;69208;47.502;18.940;2023-12-20T02:29:07;29.77;;;24.52;;
65755;SDS011;69208;47.502;18.940;2023-12-20T02:30:12;34.17;;;24.75;;
65755;SDS011;69208;47.502;18.940;2023-12-20T02:31:15;33.53;;;25.42;;
65755;SDS011;69208;47.502;18.940;2023-12-20T02:32:18;36.13;;;26.55;;
65755;SDS011;69208;47.502;18.940;2023-12-20T02:33:23;34.40;;;23.83;;
65755;SDS011;69208;47.502;18.940;2023-12-20T02:34:26;58.00;;;26.95;;
65755;SDS011;69208;47.502;18.940;2023-12-20T02:35:29;50.28;;;28.48;;
65755;SDS011;69208;47.502;18.940;2023-12-20T02:36:32;72.05;;;28.73;;
65755;SDS011;69208;47.502;18.940;2023-12-20T02:37:35;38.67;;;28.75;;
65755;SDS011;69208;47.502;18.940;2023-12-20T02:38:38;50.88;;;29.33;;
65755;SDS011;69208;47.502;18.940;2023-12-20T02:39:42;54.97;;;29.23;;
65755;SDS011;69208;47.502;18.940;2023-12-20T02:40:45;83.25;;;30.23;;
65755;SDS011;69208;47.502;18.940;2023-12-20T02:41:51;112.32;;;32.53;;
65755;SDS011;69208;47.502;18.940;2023-12-20T02:42:55;99.78;;;30.25;;
65755;SDS011;69208;47.502;18.940;2023-12-20T02:43:58;111.50;;;31.30;;
65755;SDS011;69208;47.502;18.940;2023-12-20T02:45:01;90.97;;;29.65;;
65755;SDS011;69208;47.502;18.940;2023-12-20T02:46:04;72.45;;;30.15;;
65755;SDS011;69208;47.502;18.940;2023-12-20T02:47:07;69.05;;;30.83;;
65755;SDS011;69208;47.502;18.940;2023-12-20T02:48:10;76.47;;;31.80;;
65755;SDS011;69208;47.502;18.940;2023-12-20T02:49:14;70.72;;;33.30;;
65755;SDS011;69208;47.502;18.940;2023-12-20T02:50:17;69.50;;;32.30;;
65755;SDS011;69208;47.502;18.940;2023-12-20T02:51:20;55.67;;;32.72;;
65755;SDS011;69208;47.502;18.940;2023-12-20T02:52:23;57.62;;;32.42;;
65755;SDS011;69208;47.502;18.940;2023-12-20T02:53:27;96.75;;;34.08;;
65755;SDS011;69208;47.502;18.940;2023-12-20T02:54:30;61.30;;;33.13;;
65755;SDS011;69208;47.502;18.940;2023-12-20T02:55:33;58.42;;;33.53;;
65755;SDS011;69208;47.502;18.940;2023-12-20T02:56:36;56.33;;;34.78;;
65755;SDS011;69208;47.502;18.940;2023-12-20T02:57:40;88.25;;;33.60;;
65755;SDS011;69208;47.502;18.940;2023-12-20T02:58:45;78.07;;;32.92;;
65755;SDS011;69208;47.502;18.940;2023-12-20T02:59:48;116.32;;;32.95;;
65755;SDS011;69208;47.502;18.940;2023-12-20T03:00:51;117.20;;;33.35;;
65755;SDS011;69208;47.502;18.940;2023-12-20T03:01:55;84.90;;;32.47;;
65755;SDS011;69208;47.502;18.940;2023-12-20T03:02:58;88.45;;;32.60;;
65755;SDS011;69208;47.502;18.940;2023-12-20T03:04:02;116.93;;;33.22;;
65755;SDS011;69208;47.502;18.940;2023-12-20T03:05:05;108.20;;;33.72;;
65755;SDS011;69208;47.502;18.940;2023-12-20T03:06:09;76.62;;;35.28;;
65755;SDS011;69208;47.502;18.940;2023-12-20T03:07:12;65.28;;;35.03;;
65755;SDS011;69208;47.502;18.940;2023-12-20T03:08:15;77.35;;;34.22;;
65755;SDS011;69208;47.502;18.940;2023-12-20T03:09:19;99.00;;;34.83;;
65755;SDS011;69208;47.502;18.940;2023-12-20T03:10:22;80.45;;;33.00;;
65755;SDS011;69208;47.502;18.940;2023-12-20T03:11:29;109.57;;;31.48;;
65755;SDS011;69208;47.502;18.940;2023-12-20T03:12:32;79.12;;;32.78;;
65755;SDS011;69208;47.502;18.940;2023-12-20T03:13:36;86.90;;;33.75;;
65755;SDS011;69208;47.502;18.940;2023-12-20T03:14:39;108.43;;;34.78;;
65755;SDS011;69208;47.502;18.940;2023-12-20T03:15:42;143.95;;;34.33;;
65755;SDS011;69208;47.502;18.940;2023-12-20T03:16:52;212.00;;;33.08;;
65755;SDS011;69208;47.502;18.940;2023-12-20T03:17:55;110.12;;;31.02;;
65755;SDS011;69208;47.502;18.940;2023-12-20T03:18:58;95.85;;;32.03;;
65755;SDS011;69208;47.502;18.940;2023-12-20T03:20:01;151.63;;;32.70;;
65755;SDS011;69208;47.502;18.940;2023-12-20T03:21:05;78.78;;;31.33;;
65755;SDS011;69208;47.502;18.940;2023-12-20T03:22:08;97.32;;;29.95;;
65755;SDS011;69208;47.502;18.940;2023-12-20T03:23:12;90.85;;;28.90;;
65755;SDS011;69208;47.502;18.940;2023-12-20T03:24:15;215.82;;;31.30;;
65755;SDS011;69208;47.502;18.940;2023-12-20T03:25:18;121.50;;;28.40;;
65755;SDS011;69208;47.502;18.940;2023-12-20T03:26:21;119.65;;;27.98;;
65755;SDS011;69208;47.502;18.940;2023-12-20T03:27:25;110.88;;;26.67;;
65755;SDS011;69208;47.502;18.940;2023-12-20T03:28:29;75.28;;;27.15;;
65755;SDS011;69208;47.502;18.940;2023-12-20T03:29:32;93.07;;;25.85;;
65755;SDS011;69208;47.502;18.940;2023-12-20T03:30:35;51.22;;;25.73;;
65755;SDS011;69208;47.502;18.940;2023-12-20T03:31:39;70.25;;;26.73;;
65755;SDS011;69208;47.502;18.940;2023-12-20T03:32:42;46.72;;;26.55;;
65755;SDS011;69208;47.502;18.940;2023-12-20T03:33:46;105.72;;;26.80;;
65755;SDS011;69208;47.502;18.940;2023-12-20T03:34:49;54.45;;;26.50;;
65755;SDS011;69208;47.502;18.940;2023-12-20T03:35:52;63.42;;;27.77;;
65755;SDS011;69208;47.502;18.940;2023-12-20T03:36:55;114.07;;;26.92;;
65755;SDS011;69208;47.502;18.940;2023-12-20T03:37:59;101.47;;;26.92;;
65755;SDS011;69208;47.502;18.940;2023-12-20T03:39:03;77.05;;;26.25;;
65755;SDS011;69208;47.502;18.940;2023-12-20T03:40:06;60.40;;;24.92;;
65755;SDS011;69208;47.502;18.940;2023-12-20T03:41:09;57.17;;;27.23;;
65755;SDS011;69208;47.502;18.940;2023-12-20T03:42:13;71.43;;;25.12;;
65755;SDS011;69208;47.502;18.940;2023-12-20T03:43:16;53.15;;;26.05;;
65755;SDS011;69208;47.502;18.940;2023-12-20T03:44:20;43.47;;;25.83;;
65755;SDS011;69208;47.502;18.940;2023-12-20T03:45:23;40.40;;;26.17;;
65755;SDS011;69208;47.502;18.940;2023-12-20T03:46:26;38.78;;;27.30;;
65755;SDS011;69208;47.502;18.940;2023-12-20T03:47:29;34.53;;;25.92;;
65755;SDS011;69208;47.502;18.940;2023-12-20T03:48:33;36.72;;;26.55;;
65755;SDS011;69208;47.502;18.940;2023-12-20T03:49:36;34.47;;;26.25;;
65755;SDS011;69208;47.502;18.940;2023-12-20T03:50:41;36.08;;;25.27;;
65755;SDS011;69208;47.502;18.940;2023-12-20T03:51:44;35.30;;;25.40;;
65755;SDS011;69208;47.502;18.940;2023-12-20T03:52:48;34.78;;;25.10;;
65755;SDS011;69208;47.502;18.940;2023-12-20T03:53:51;33.80;;;25.52;;
65755;SDS011;69208;47.502;18.940;2023-12-20T03:54:54;34.30;;;24.23;;
65755;SDS011;69208;47.502;18.940;2023-12-20T03:55:58;34.35;;;25.08;;
65755;SDS011;69208;47.502;18.940;2023-12-20T03:57:02;33.88;;;24.33;;
65755;SDS011;69208;47.502;18.940;2023-12-20T03:58:05;32.55;;;24.20;;
65755;SDS011;69208;47.502;18.940;2023-12-20T03:59:08;33.72;;;25.50;;
65755;SDS011;69208;47.502;18.940;2023-12-20T04:00:11;35.70;;;25.60;;
65755;SDS011;69208;47.502;18.940;2023-12-20T04:01:14;34.08;;;24.08;;
65755;SDS011;69208;47.502;18.940;2023-12-20T04:02:18;33.38;;;23.45;;
65755;SDS011;69208;47.502;18.940;2023-12-20T04:03:21;37.85;;;24.87;;
65755;SDS011;69208;47.502;18.940;2023-12-20T04:04:24;35.35;;;24.98;;
65755;SDS011;69208;47.502;18.940;2023-12-20T04:05:27;34.30;;;24.20;;
65755;SDS011;69208;47.502;18.940;2023-12-20T04:06:31;39.25;;;25.20;;
65755;SDS011;69208;47.502;18.940;2023-12-20T04:07:37;36.83;;;25.25;;
65755;SDS011;69208;47.502;18.940;2023-12-20T04:08:41;33.13;;;24.10;;
65755;SDS011;69208;47.502;18.940;2023-12-20T04:09:44;36.58;;;25.45;;
65755;SDS011;69208;47.502;18.940;2023-12-20T04:10:47;35.13;;;24.92;;
65755;SDS011;69208;47.502;18.940;2023-12-20T04:11:50;38.78;;;25.17;;
65755;SDS011;69208;47.502;18.940;2023-12-20T04:12:53;39.85;;;26.75;;
65755;SDS011;69208;47.502;18.940;2023-12-20T04:13:57;34.80;;;23.87;;
65755;SDS011;69208;47.502;18.940;2023-12-20T04:15:01;34.75;;;23.92;;
65755;SDS011;69208;47.502;18.940;2023-12-20T04:16:04;32.80;;;23.35;;
65755;SDS011;69208;47.502;18.940;2023-12-20T04:17:07;34.28;;;24.08;;
65755;SDS011;69208;47.502;18.940;2023-12-20T04:18:10;33.63;;;24.90;;
65755;SDS011;69208;47.502;18.940;2023-12-20T04:19:13;33.28;;;22.75;;
65755;SDS011;69208;47.502;18.940;2023-12-20T04:20:17;34.83;;;24.37;;
65755;SDS011;69208;47.502;18.940;2023-12-20T04:21:20;33.38;;;23.83;;
65755;SDS011;69208;47.502;18.940;2023-12-20T04:22:23;32.58;;;24.08;;
65755;SDS011;69208;47.502;18.940;2023-12-20T04:23:26;31.98;;;22.73;;
65755;SDS011;69208;47.502;18.940;2023-12-20T04:24:29;34.80;;;23.87;;
65755;SDS011;69208;47.502;18.940;2023-12-20T04:25:32;39.28;;;23.12;;
65755;SDS011;69208;47.502;18.940;2023-12-20T04:26:35;38.53;;;23.17;;
65755;SDS011;69208;47.502;18.940;2023-12-20T04:27:39;39.55;;;24.48;;
65755;SDS011;69208;47.502;18.940;2023-12-20T04:28:42;41.55;;;23.55;;
65755;SDS011;69208;47.502;18.940;2023-12-20T04:29:46;37.05;;;24.67;;
65755;SDS011;69208;47.502;18.940;2023-12-20T04:30:49;33.85;;;23.55;;
65755;SDS011;69208;47.502;18.940;2023-12-20T04:31:52;38.28;;;23.73;;
65755;SDS011;69208;47.502;18.940;2023-12-20T04:32:55;34.13;;;23.50;;
65755;SDS011;69208;47.502;18.940;2023-12-20T04:34:00;33.53;;;23.42;;
65755;SDS011;69208;47.502;18.940;2023-12-20T04:35:04;33.45;;;24.45;;
65755;SDS011;69208;47.502;18.940;2023-12-20T04:36:07;37.35;;;23.58;;
65755;SDS011;69208;47.502;18.940;2023-12-20T04:37:12;37.47;;;23.75;;
65755;SDS011;69208;47.502;18.940;2023-12-20T04:38:15;31.27;;;22.70;;
65755;SDS011;69208;47.502;18.940;2023-12-20T04:39:18;39.70;;;23.45;;
65755;SDS011;69208;47.502;18.940;2023-12-20T04:40:22;36.90;;;23.45;;
65755;SDS011;69208;47.502;18.940;2023-12-20T04:41:25;35.03;;;23.12;;
65755;SDS011;69208;47.502;18.940;2023-12-20T04:42:28;33.15;;;23.55;;
65755;SDS011;69208;47.502;18.940;2023-12-20T04:43:31;35.80;;;23.60;;
65755;SDS011;69208;47.502;18.940;2023-12-20T04:44:34;39.28;;;24.12;;
65755;SDS011;69208;47.502;18.940;2023-12-20T04:45:37;31.12;;;22.48;;
65755;SDS011;69208;47.502;18.940;2023-12-20T04:46:40;35.22;;;23.85;;
65755;SDS011;69208;47.502;18.940;2023-12-20T04:47:43;34.97;;;24.33;;
65755;SDS011;69208;47.502;18.940;2023-12-20T04:48:47;31.73;;;22.40;;
65755;SDS011;69208;47.502;18.940;2023-12-20T04:49:51;30.42;;;21.70;;
65755;SDS011;69208;47.502;18.940;2023-12-20T04:50:54;34.13;;;23.17;;
65755;SDS011;69208;47.502;18.940;2023-12-20T04:51:57;31.67;;;21.65;;
65755;SDS011;69208;47.502;18.940;2023-12-20T04:53:00;39.50;;;23.02;;
65755;SDS011;69208;47.502;18.940;2023-12-20T04:54:03;36.75;;;23.95;;
65755;SDS011;69208;47.502;18.940;2023-12-20T04:55:06;29.37;;;22.00;;
65755;SDS011;69208;47.502;18.940;2023-12-20T04:56:11;31.15;;;21.30;;
65755;SDS011;69208;47.502;18.940;2023-12-20T04:57:14;29.17;;;22.25;;
65755;SDS011;69208;47.502;18.940;2023-12-20T04:58:18;32.00;;;21.83;;
65755;SDS011;69208;47.502;18.940;2023-12-20T04:59:21;31.98;;;21.58;;
65755;SDS011;69208;47.502;18.940;2023-12-20T05:00:24;32.42;;;21.48;;
65755;SDS011;69208;47.502;18.940;2023-12-20T05:01:27;31.15;;;22.33;;
65755;SDS011;69208;47.502;18.940;2023-12-20T05:02:30;32.33;;;23.52;;
65755;SDS011;69208;47.502;18.940;2023-12-20T05:03:35;36.13;;;24.33;;
65755;SDS011;69208;47.502;18.940;2023-12-20T05:04:39;38.72;;;25.92;;
65755;SDS011;69208;47.502;18.940;2023-12-20T05:05:42;40.72;;;26.10;;
65755;SDS011;69208;47.502;18.940;2023-12-20T05:06:45;38.88;;;26.95;;
65755;SDS011;69208;47.502;18.940;2023-12-20T05:07:49;42.05;;;25.60;;
65755;SDS011;69208;47.502;18.940;2023-12-20T05:08:53;36.80;;;25.60;;
65755;SDS011;69208;47.502;18.940;2023-12-20T05:09:56;37.30;;;24.98;;
65755;SDS011;69208;47.502;18.940;2023-12-20T05:10:59;37.60;;;25.55;;
65755;SDS011;69208;47.502;18.940;2023-12-20T05:12:02;36.95;;;25.40;;
65755;SDS011;69208;47.502;18.940;2023-12-20T05:13:06;44.22;;;26.30;;
65755;SDS011;69208;47.502;18.940;2023-12-20T05:14:10;40.65;;;25.45;;
65755;SDS011;69208;47.502;18.940;2023-12-20T05:15:14;38.83;;;26.10;;
65755;SDS011;69208;47.502;18.940;2023-12-20T05:16:17;39.35;;;25.37;;
65755;SDS011;69208;47.502;18.940;2023-12-20T05:17:21;40.78;;;26.90;;
65755;SDS011;69208;47.502;18.940;2023-12-20T05:18:26;36.25;;;24.02;;
65755;SDS011;69208;47.502;18.940;2023-12-20T05:19:28;42.85;;;25.20;;
65755;SDS011;69208;47.502;18.940;2023-12-20T05:20:33;38.00;;;25.50;;
65755;SDS011;69208;47.502;18.940;2023-12-20T05:21:37;36.63;;;25.15;;
65755;SDS011;69208;47.502;18.940;2023-12-20T05:22:40;38.50;;;24.73;;
65755;SDS011;69208;47.502;18.940;2023-12-20T05:23:45;39.00;;;24.70;;
65755;SDS011;69208;47.502;18.940;2023-12-20T05:24:48;39.15;;;25.90;;
65755;SDS011;69208;47.502;18.940;2023-12-20T05:25:51;41.20;;;26.65;;
65755;SDS011;69208;47.502;18.940;2023-12-20T05:26:54;39.75;;;26.27;;
65755;SDS011;69208;47.502;18.940;2023-12-20T05:27:57;39.53;;;26.30;;
65755;SDS011;69208;47.502;18.940;2023-12-20T05:29:00;42.40;;;25.62;;
65755;SDS011;69208;47.502;18.940;2023-12-20T05:30:04;40.42;;;25.55;;
65755;SDS011;69208;47.502;18.940;2023-12-20T05:31:08;42.38;;;25.80;;
65755;SDS011;69208;47.502;18.940;2023-12-20T05:32:11;43.00;;;27.62;;
65755;SDS011;69208;47.502;18.940;2023-12-20T05:33:15;52.10;;;26.60;;
65755;SDS011;69208;47.502;18.940;2023-12-20T05:34:18;43.10;;;26.90;;
65755;SDS011;69208;47.502;18.940;2023-12-20T05:35:22;54.55;;;27.05;;
65755;SDS011;69208;47.502;18.940;2023-12-20T05:36:26;67.57;;;26.85;;
65755;SDS011;69208;47.502;18.940;2023-12-20T05:37:29;96.00;;;27.20;;
65755;SDS011;69208;47.502;18.940;2023-12-20T05:38:32;64.53;;;26.58;;
65755;SDS011;69208;47.502;18.940;2023-12-20T05:39:36;52.60;;;26.35;;
65755;SDS011;69208;47.502;18.940;2023-12-20T05:40:39;44.60;;;25.25;;
65755;SDS011;69208;47.502;18.940;2023-12-20T05:41:42;43.13;;;26.50;;
65755;SDS011;69208;47.502;18.940;2023-12-20T05:42:46;42.58;;;26.50;;
65755;SDS011;69208;47.502;18.940;2023-12-20T05:43:49;44.78;;;28.60;;
65755;SDS011;69208;47.502;18.940;2023-12-20T05:44:52;41.35;;;27.60;;
65755;SDS011;69208;47.502;18.940;2023-12-20T05:45:58;40.12;;;27.50;;
65755;SDS011;69208;47.502;18.940;2023-12-20T05:47:01;42.75;;;26.90;;
65755;SDS011;69208;47.502;18.940;2023-12-20T05:48:04;42.00;;;26.62;;
65755;SDS011;69208;47.502;18.940;2023-12-20T05:49:08;43.00;;;28.38;;
65755;SDS011;69208;47.502;18.940;2023-12-20T05:50:12;41.65;;;25.27;;
65755;SDS011;69208;47.502;18.940;2023-12-20T05:51:15;39.28;;;24.83;;
65755;SDS011;69208;47.502;18.940;2023-12-20T05:52:19;41.10;;;26.33;;
65755;SDS011;69208;47.502;18.940;2023-12-20T05:53:22;43.65;;;26.37;;
65755;SDS011;69208;47.502;18.940;2023-12-20T05:54:25;40.45;;;25.98;;
65755;SDS011;69208;47.502;18.940;2023-12-20T05:55:28;37.90;;;25.58;;
65755;SDS011;69208;47.502;18.940;2023-12-20T05:56:31;42.08;;;26.52;;
65755;SDS011;69208;47.502;18.940;2023-12-20T05:57:35;38.40;;;25.77;;
65755;SDS011;69208;47.502;18.940;2023-12-20T05:58:38;40.05;;;25.77;;
65755;SDS011;69208;47.502;18.940;2023-12-20T05:59:42;42.83;;;27.05;;
65755;SDS011;69208;47.502;18.940;2023-12-20T06:00:45;44.25;;;27.85;;
65755;SDS011;69208;47.502;18.940;2023-12-20T06:01:49;37.35;;;26.45;;
65755;SDS011;69208;47.502;18.940;2023-12-20T06:02:52;42.75;;;26.62;;
65755;SDS011;69208;47.502;18.940;2023-12-20T06:03:55;43.00;;;26.90;;
65755;SDS011;69208;47.502;18.940;2023-12-20T06:04:59;39.13;;;26.60;;